Time;durP1;ratioP1;P1;durP2;ratioP2;P2;SDS_P1;SDS_P2;PMS_P1;PMS_P2;Temp;Humidity;BMP_temperature;BMP_pressure;BME280_temperature;BME280_humidity;BME280_pressure;Samples;Min_cycle;Max_cycle;Signal;HPM_P1;HPM_P2
2022/10/08 00:01:00;;;;;;;;;12.00;9.25;;;;;21.35;55.58;101241.59;5079005;28;45892;-48
2022/10/08 00:03:27;;;;;;;;;15.00;10.50;;;;;21.36;54.96;101240.69;5080475;28;45420;-47
2022/10/08 00:06:04;;;;;;;;;10.50;10.50;;;;;21.36;55.21;101248.66;5080463;28;45321;-50
2022/10/08 00:08:32;;;;;;;;;12.75;11.00;;;;;21.36;55.22;101238.03;5079879;28;47060;-47
2022/10/08 00:10:59;;;;;;;;;12.50;11.50;;;;;21.35;55.38;101241.59;5070983;28;45208;-46
2022/10/08 00:13:25;;;;;;;;;16.00;12.50;;;;;21.36;55.20;101238.03;5058923;28;45230;-48
2022/10/08 00:15:50;;;;;;;;;16.25;13.75;;;;;21.36;55.17;101240.69;5061875;28;45601;-47
2022/10/08 00:18:16;;;;;;;;;12.75;9.25;;;;;21.36;55.00;101247.78;5062620;28;60837;-45
2022/10/08 00:20:42;;;;;;;;;15.00;12.25;;;;;21.35;54.92;101243.41;5063456;28;45261;-44
2022/10/08 00:23:07;;;;;;;;;13.00;10.25;;;;;21.34;54.90;101239.88;5063538;28;45212;-48
2022/10/08 00:25:41;;;;;;;;;16.00;13.75;;;;;21.34;54.76;101247.84;5071054;28;45317;-45
2022/10/08 00:28:09;;;;;;;;;13.00;12.75;;;;;21.33;54.62;101243.44;5066532;27;45410;-48
2022/10/08 00:30:39;;;;;;;;;18.25;12.00;;;;;21.33;54.92;101246.09;5063384;28;45310;-46
2022/10/08 00:33:06;;;;;;;;;14.75;9.75;;;;;21.34;54.92;101242.53;5063283;28;45291;-46
2022/10/08 00:35:37;;;;;;;;;14.25;12.25;;;;;21.36;54.66;101245.13;5063199;28;45309;-48
2022/10/08 00:38:03;;;;;;;;;14.25;11.25;;;;;21.35;55.07;101254.88;5063093;28;46125;-45
2022/10/08 00:40:28;;;;;;;;;13.75;11.75;;;;;21.35;55.12;101246.91;5061642;28;45318;-44
2022/10/08 00:42:54;;;;;;;;;11.75;9.75;;;;;21.36;55.27;101243.34;5062314;28;63577;-46
2022/10/08 00:45:20;;;;;;;;;11.25;9.75;;;;;21.36;54.64;101246.00;5074142;28;45258;-44
2022/10/08 00:47:46;;;;;;;;;11.25;10.75;;;;;21.36;54.45;101248.66;5063362;28;64655;-46
2022/10/08 00:50:29;;;;;;;;;14.00;12.50;;;;;21.37;54.49;101249.53;5061799;28;45273;-45
2022/10/08 00:53:00;;;;;;;;;16.00;12.25;;;;;21.36;54.74;101258.41;5074749;28;45311;-44
2022/10/08 00:55:26;;;;;;;;;10.25;9.75;;;;;21.36;54.67;101250.44;5061432;28;45496;-46
2022/10/08 00:57:52;;;;;;;;;11.00;10.75;;;;;21.36;54.85;101261.06;5049733;28;45353;-44
2022/10/08 01:00:24;;;;;;;;;12.50;10.25;;;;;21.36;54.49;101256.63;5061571;28;45330;-44
2022/10/08 01:02:50;;;;;;;;;11.75;10.25;;;;;21.35;54.40;101257.53;5062853;28;45318;-46
2022/10/08 01:05:16;;;;;;;;;14.50;13.25;;;;;21.36;54.83;101251.31;5062671;28;45401;-45
2022/10/08 01:08:11;;;;;;;;;13.25;11.75;;;;;21.36;54.49;101251.31;5061573;28;45633;-44
2022/10/08 01:11:06;;;;;;;;;12.00;9.00;;;;;21.37;54.49;101249.53;5068996;28;45348;-43
2022/10/08 01:13:53;;;;;;;;;14.00;13.00;;;;;21.37;54.75;101247.78;5075359;28;45335;-44
2022/10/08 01:16:44;;;;;;;;;11.50;11.50;;;;;21.38;54.82;101256.63;5061102;28;45348;-43
2022/10/08 01:19:22;;;;;;;;;13.75;9.25;;;;;21.38;54.72;101243.34;5072287;28;47111;-47
2022/10/08 01:22:08;;;;;;;;;12.50;11.50;;;;;21.37;54.46;101249.53;5082684;28;45365;-44
2022/10/08 01:27:33;;;;;;;;;9.50;9.00;;;;;21.37;54.58;101245.13;5081991;28;45481;-44
2022/10/08 01:30:00;;;;;;;;;13.00;11.50;;;;;21.37;54.42;101247.78;5064289;28;47327;-44
2022/10/08 01:32:30;;;;;;;;;13.50;10.25;;;;;21.37;54.35;101239.81;5082404;28;45353;-43
2022/10/08 01:34:58;;;;;;;;;14.75;11.00;;;;;21.39;54.42;101239.75;5064382;28;45226;-43
2022/10/08 01:37:30;;;;;;;;;13.25;9.75;;;;;21.38;54.62;101236.25;5064541;28;45662;-44
2022/10/08 01:39:57;;;;;;;;;10.75;10.00;;;;;21.40;54.48;101241.50;5080996;28;46089;-43
2022/10/08 01:42:22;;;;;;;;;15.00;12.25;;;;;21.39;54.49;101237.97;5064439;28;45305;-46
2022/10/08 01:44:52;;;;;;;;;11.50;10.00;;;;;21.41;54.26;101240.59;5063945;28;60637;-43
2022/10/08 01:47:20;;;;;;;;;11.25;10.00;;;;;21.41;54.35;101232.63;5063987;28;45261;-43
2022/10/08 01:50:01;;;;;;;;;11.00;11.00;;;;;21.41;54.69;101235.28;5048709;28;46122;-43
2022/10/08 01:52:28;;;;;;;;;14.50;12.75;;;;;21.41;54.30;101238.78;5051432;28;45388;-43
2022/10/08 01:54:56;;;;;;;;;16.00;11.75;;;;;21.40;54.27;101234.41;5081143;28;45271;-43
2022/10/08 01:57:21;;;;;;;;;11.50;8.50;;;;;21.42;54.45;101232.56;5082295;28;45410;-44
2022/10/08 01:59:50;;;;;;;;;21.50;14.75;;;;;21.42;54.62;101226.38;5046243;28;71694;-45
2022/10/08 02:02:23;;;;;;;;;13.25;12.75;;;;;21.42;54.24;101227.25;5064006;28;45536;-43
2022/10/08 02:04:52;;;;;;;;;12.25;9.00;;;;;21.43;54.54;101225.47;5043979;28;45356;-42
2022/10/08 02:07:19;;;;;;;;;8.50;8.50;;;;;21.45;54.54;101227.16;5063740;28;45480;-42
2022/10/08 02:09:46;;;;;;;;;15.75;12.25;;;;;21.45;54.24;101227.16;5080497;28;46121;-43
2022/10/08 02:12:13;;;;;;;;;10.75;9.00;;;;;21.45;54.01;101232.47;5062093;27;45220;-42
2022/10/08 02:14:40;;;;;;;;;9.25;9.25;;;;;21.46;54.42;101228.06;5073751;28;45400;-44
2022/10/08 02:17:34;;;;;;;;;12.00;12.00;;;;;21.48;53.98;101233.31;5064058;28;45256;-42
2022/10/08 02:20:22;;;;;;;;;14.00;10.00;;;;;21.47;54.15;101234.25;5076639;28;47022;-44
2022/10/08 02:22:50;;;;;;;;;10.50;9.00;;;;;21.46;54.19;101233.38;5061498;28;45322;-45
2022/10/08 02:25:32;;;;;;;;;10.00;8.50;;;;;21.46;54.45;101233.38;5067666;28;45264;-42
2022/10/08 02:28:20;;;;;;;;;13.25;10.50;;;;;21.46;54.16;101238.69;5077872;28;45347;-42
2022/10/08 02:30:57;;;;;;;;;11.00;8.75;;;;;21.47;53.98;101239.56;5052412;28;46240;-45
2022/10/08 02:33:30;;;;;;;;;11.25;10.75;;;;;21.47;54.01;101234.25;5067725;28;45433;-44
2022/10/08 02:35:56;;;;;;;;;11.00;10.75;;;;;21.47;53.83;101232.47;5078950;28;45312;-42
2022/10/08 02:38:28;;;;;;;;;11.50;9.25;;;;;21.48;54.34;101230.66;5051219;28;45491;-45
2022/10/08 02:40:55;;;;;;;;;16.00;11.25;;;;;21.48;53.73;101236.84;5063927;28;45272;-45
2022/10/08 02:43:24;;;;;;;;;11.25;9.00;;;;;21.45;54.39;101219.19;5049419;28;45302;-42
2022/10/08 02:45:54;;;;;;;;;9.75;7.75;;;;;21.47;53.99;101229.81;5046615;28;45377;-46
2022/10/08 02:48:32;;;;;;;;;12.00;9.00;;;;;21.48;53.98;101225.34;5070559;28;45488;-43
2022/10/08 02:51:05;;;;;;;;;12.75;9.00;;;;;21.49;53.95;101232.41;5077778;28;45227;-43
2022/10/08 02:53:35;;;;;;;;;8.50;8.25;;;;;21.48;53.74;101228.88;5080390;28;45474;-43
2022/10/08 02:56:13;;;;;;;;;9.00;9.00;;;;;21.50;53.80;101226.19;5079930;28;45330;-43
2022/10/08 02:58:41;;;;;;;;;13.00;7.75;;;;;21.49;54.07;101222.66;5081265;28;45448;-45
2022/10/08 03:01:14;;;;;;;;;11.00;9.00;;;;;21.50;54.09;101231.50;5080976;28;47060;-43
2022/10/08 03:03:47;;;;;;;;;15.75;11.25;;;;;21.51;53.81;101236.75;5079874;28;45492;-45
2022/10/08 03:06:13;;;;;;;;;9.25;7.75;;;;;21.50;53.61;101235.00;5063431;28;45366;-47
2022/10/08 03:08:43;;;;;;;;;10.25;9.75;;;;;21.52;54.25;101237.63;5060667;28;45562;-45
2022/10/08 03:11:08;;;;;;;;;12.50;10.25;;;;;21.51;53.79;101231.44;5066451;28;47950;-43
2022/10/08 03:13:39;;;;;;;;;7.75;7.75;;;;;21.52;53.96;101230.53;5059425;28;45737;-43
2022/10/08 03:16:06;;;;;;;;;10.00;8.00;;;;;21.52;53.43;101227.00;5069539;28;45221;-48
2022/10/08 03:18:31;;;;;;;;;11.50;9.50;;;;;21.53;53.57;101226.09;5062991;28;45273;-48
2022/10/08 03:20:57;;;;;;;;;7.00;7.00;;;;;21.52;53.79;101233.19;5061989;28;68674;-44
2022/10/08 03:23:22;;;;;;;;;10.75;10.00;;;;;21.54;53.57;101233.13;5062503;28;45274;-45
2022/10/08 03:25:47;;;;;;;;;9.00;9.00;;;;;21.52;53.44;101238.50;5032532;28;45274;-43
2022/10/08 03:28:13;;;;;;;;;9.75;9.25;;;;;21.53;54.13;101240.22;5059816;28;62859;-45
2022/10/08 03:30:38;;;;;;;;;9.00;8.25;;;;;21.53;53.73;101240.22;5058408;28;69605;-43
2022/10/08 03:33:04;;;;;;;;;9.50;8.00;;;;;21.54;53.72;101241.09;5072772;28;45385;-44
2022/10/08 03:35:29;;;;;;;;;8.00;7.25;;;;;21.55;53.43;101242.88;5059992;28;60443;-44
2022/10/08 03:37:54;;;;;;;;;10.00;9.00;;;;;21.55;53.56;101249.06;5059128;28;45544;-44
2022/10/08 03:40:20;;;;;;;;;8.75;8.75;;;;;21.56;53.50;101249.91;5059575;28;64847;-43
2022/10/08 03:42:46;;;;;;;;;9.50;8.75;;;;;21.55;53.05;101248.19;5059650;28;58350;-44
2022/10/08 03:45:11;;;;;;;;;6.25;6.00;;;;;21.56;53.20;101260.53;5060095;28;52674;-42
2022/10/08 03:47:36;;;;;;;;;9.75;7.25;;;;;21.56;53.82;101260.53;5058620;28;48464;-42
2022/10/08 03:50:02;;;;;;;;;11.00;9.00;;;;;21.56;53.87;101263.19;5047962;28;46988;-42
2022/10/08 03:52:28;;;;;;;;;8.25;6.75;;;;;21.57;53.30;101264.94;5077135;28;45232;-42
2022/10/08 03:54:54;;;;;;;;;9.75;9.00;;;;;21.57;53.23;101270.25;5079398;28;45291;-43
2022/10/08 03:57:19;;;;;;;;;9.75;8.75;;;;;21.56;53.63;101266.72;5079877;28;59909;-43
2022/10/08 03:59:45;;;;;;;;;11.00;7.00;;;;;21.57;53.51;101271.13;5080536;28;46127;-44
2022/10/08 04:02:10;;;;;;;;;7.75;7.75;;;;;21.57;53.52;101268.47;5079599;28;60362;-45
2022/10/08 04:04:35;;;;;;;;;8.00;6.00;;;;;21.59;53.36;101273.72;5079921;28;58691;-43
2022/10/08 04:07:01;;;;;;;;;8.25;8.25;;;;;21.58;53.16;101275.50;5079902;28;53664;-43
2022/10/08 04:09:26;;;;;;;;;10.00;7.00;;;;;21.58;53.34;101274.66;5078316;28;58135;-42
2022/10/08 04:11:51;;;;;;;;;10.00;8.25;;;;;21.58;52.88;101278.16;5062564;28;59973;-46
2022/10/08 04:14:17;;;;;;;;;7.25;7.25;;;;;21.58;52.81;101280.81;5048236;28;52325;-42
2022/10/08 04:16:42;;;;;;;;;8.75;7.25;;;;;21.59;52.92;101285.22;5059035;28;62954;-44
2022/10/08 04:19:10;;;;;;;;;10.25;7.75;;;;;21.60;52.91;101281.66;5064984;28;47483;-46
2022/10/08 04:21:35;;;;;;;;;10.00;8.25;;;;;21.59;52.80;101282.56;5059644;28;45353;-42
2022/10/08 04:24:00;;;;;;;;;7.25;7.25;;;;;21.59;52.91;101293.19;5059409;28;63352;-43
2022/10/08 04:26:26;;;;;;;;;9.25;7.00;;;;;21.59;52.93;101293.19;5058746;28;65916;-43
2022/10/08 04:28:51;;;;;;;;;10.25;7.00;;;;;21.61;53.43;101293.16;5059916;28;46275;-44
2022/10/08 04:31:18;;;;;;;;;10.50;8.75;;;;;21.60;53.18;101304.69;5059490;28;45330;-42
2022/10/08 04:33:44;;;;;;;;;7.00;7.00;;;;;21.61;53.21;101306.44;5060054;28;45287;-43
2022/10/08 04:36:11;;;;;;;;;6.50;6.50;;;;;21.60;52.98;101304.69;5058176;28;45435;-44
2022/10/08 04:38:36;;;;;;;;;6.25;6.25;;;;;21.60;52.60;101304.69;5059539;28;49040;-45
2022/10/08 04:41:15;;;;;;;;;6.25;6.25;;;;;21.61;53.04;101311.75;5058698;28;64543;-44
2022/10/08 04:43:41;;;;;;;;;7.25;7.25;;;;;21.61;52.94;101309.09;5070194;28;45356;-45
2022/10/08 04:46:07;;;;;;;;;7.00;7.00;;;;;21.60;52.85;101310.00;5061575;28;45343;-43
2022/10/08 04:48:33;;;;;;;;;7.25;7.00;;;;;21.61;52.89;101314.41;5067860;28;46315;-43
2022/10/08 04:51:00;;;;;;;;;10.25;10.25;;;;;21.62;52.52;101321.44;5077778;28;45280;-42
2022/10/08 04:53:26;;;;;;;;;9.25;7.50;;;;;21.62;53.12;101324.09;5078836;28;45304;-46
2022/10/08 04:55:52;;;;;;;;;9.25;7.25;;;;;21.62;52.81;101324.97;5079462;28;45245;-43
2022/10/08 04:58:17;;;;;;;;;6.00;6.00;;;;;21.63;53.02;101333.81;5079697;28;45275;-44
2022/10/08 05:00:43;;;;;;;;;6.75;6.25;;;;;21.62;52.52;101327.63;5080095;28;66371;-46
2022/10/08 05:03:08;;;;;;;;;7.75;5.50;;;;;21.63;52.87;101325.84;5083298;28;45365;-47
2022/10/08 05:05:38;;;;;;;;;8.25;6.50;;;;;21.64;52.65;101328.47;5083000;28;45426;-45
2022/10/08 05:08:03;;;;;;;;;4.75;4.75;;;;;21.62;52.63;101327.63;5082938;28;45428;-42
2022/10/08 05:10:29;;;;;;;;;10.25;8.00;;;;;21.63;52.45;101328.50;5077564;28;45501;-44
2022/10/08 05:12:54;;;;;;;;;9.25;7.25;;;;;21.63;52.76;101331.16;5044034;28;62608;-49
2022/10/08 05:15:19;;;;;;;;;6.75;6.00;;;;;21.62;52.41;101332.06;5079367;28;59890;-44
2022/10/08 05:17:45;;;;;;;;;5.00;4.50;;;;;21.62;52.46;101332.94;5070110;28;65924;-44
2022/10/08 05:20:10;;;;;;;;;7.75;7.25;;;;;21.62;52.24;101335.59;5062272;28;55851;-45
2022/10/08 05:22:35;;;;;;;;;4.50;4.00;;;;;21.62;52.38;101338.25;5062552;28;45787;-42
2022/10/08 05:25:01;;;;;;;;;7.50;5.25;;;;;21.63;52.17;101348.00;5062233;28;45209;-41
2022/10/08 05:27:26;;;;;;;;;6.50;6.25;;;;;21.63;52.15;101347.09;5062442;28;46049;-46
2022/10/08 05:29:52;;;;;;;;;6.50;6.25;;;;;21.64;52.01;101346.22;5062329;28;45281;-43
2022/10/08 05:32:17;;;;;;;;;8.00;6.25;;;;;21.65;52.66;101347.94;5061738;28;58527;-42
2022/10/08 05:34:42;;;;;;;;;5.75;5.75;;;;;21.65;52.14;101350.59;5060500;28;62341;-45
2022/10/08 05:37:08;;;;;;;;;7.00;7.00;;;;;21.65;52.13;101351.47;5061057;28;46018;-44
2022/10/08 05:39:33;;;;;;;;;6.00;6.00;;;;;21.65;52.63;101350.59;5060736;28;46650;-43
2022/10/08 05:41:59;;;;;;;;;5.25;5.25;;;;;21.66;52.11;101353.22;5071819;28;61109;-42
2022/10/08 05:44:24;;;;;;;;;6.50;5.00;;;;;21.66;52.17;101360.31;5064076;28;45368;-42
2022/10/08 05:46:49;;;;;;;;;5.75;5.00;;;;;21.66;52.05;101368.28;5061393;28;62952;-42
2022/10/08 05:49:19;;;;;;;;;5.50;5.25;;;;;21.67;51.90;101364.72;5065208;28;54587;-44
2022/10/08 05:51:45;;;;;;;;;6.25;6.25;;;;;21.69;51.83;101366.41;5082733;28;45342;-42
2022/10/08 05:54:11;;;;;;;;;6.00;6.00;;;;;21.67;51.72;101370.03;5082071;28;45230;-42
2022/10/08 05:56:36;;;;;;;;;7.00;6.00;;;;;21.67;51.89;101356.75;5080958;28;48489;-42
2022/10/08 05:59:02;;;;;;;;;6.25;5.75;;;;;21.67;51.94;101362.06;5080431;28;57989;-42
2022/10/08 06:01:30;;;;;;;;;8.00;5.50;;;;;21.68;51.56;101367.31;5080300;28;53948;-40
2022/10/08 06:03:59;;;;;;;;;6.00;4.75;;;;;21.68;51.67;101364.66;5062945;28;45323;-47
2022/10/08 06:06:25;;;;;;;;;6.50;6.00;;;;;21.69;51.24;101368.19;5073205;28;45257;-43
2022/10/08 06:08:54;;;;;;;;;7.50;6.25;;;;;21.70;51.69;101376.13;5082043;28;45324;-46
2022/10/08 06:11:20;;;;;;;;;8.75;6.25;;;;;21.69;51.54;101377.03;5069210;28;45350;-46
2022/10/08 06:13:45;;;;;;;;;6.25;5.25;;;;;21.71;52.23;101376.97;5057627;28;62801;-46
2022/10/08 06:16:12;;;;;;;;;8.25;6.25;;;;;21.72;51.67;101379.63;5060819;28;59967;-47
2022/10/08 06:18:39;;;;;;;;;9.50;7.25;;;;;21.73;52.22;101383.16;5060167;28;45493;-43
2022/10/08 06:21:06;;;;;;;;;5.00;5.00;;;;;21.73;51.66;101381.38;5072292;28;45535;-47
2022/10/08 06:23:31;;;;;;;;;6.75;5.50;;;;;21.71;51.88;101376.97;5061981;28;45420;-44
2022/10/08 06:26:03;;;;;;;;;5.50;5.25;;;;;21.67;52.48;101391.28;5060038;28;45691;-46
2022/10/08 06:28:29;;;;;;;;;5.00;3.75;;;;;21.63;52.00;101392.25;5061440;28;45293;-42
2022/10/08 06:30:54;;;;;;;;;4.00;4.00;;;;;21.60;51.87;101405.63;5060347;28;45225;-45
2022/10/08 06:33:21;;;;;;;;;6.00;4.00;;;;;21.54;51.98;101406.66;5079275;28;52324;-47
2022/10/08 06:35:46;;;;;;;;;7.25;4.00;;;;;21.51;51.87;101412.03;5063600;28;45447;-45
2022/10/08 06:38:12;;;;;;;;;4.75;4.75;;;;;21.47;52.45;101410.41;5061717;28;45197;-44
2022/10/08 06:40:40;;;;;;;;;7.50;4.50;;;;;21.45;51.67;101418.38;5072254;28;62558;-45
2022/10/08 06:43:16;;;;;;;;;4.25;4.25;;;;;21.42;51.96;101421.13;5060056;28;45377;-46
2022/10/08 06:45:42;;;;;;;;;5.25;3.25;;;;;21.37;50.92;101420.38;5059834;28;45467;-45
2022/10/08 06:48:07;;;;;;;;;7.50;4.25;;;;;21.34;52.12;101428.41;5061166;28;45520;-45
2022/10/08 06:50:33;;;;;;;;;6.00;3.25;;;;;21.30;51.41;101432.06;5074502;28;45534;-43
2022/10/08 06:52:58;;;;;;;;;4.25;3.75;;;;;21.28;51.83;101438.28;5079969;28;45510;-43
2022/10/08 06:55:24;;;;;;;;;2.50;2.50;;;;;21.26;50.97;101432.13;5080653;28;46142;-46
2022/10/08 06:57:49;;;;;;;;;8.00;4.00;;;;;21.27;52.75;101436.53;5079886;28;45242;-44
2022/10/08 07:00:15;;;;;;;;;5.50;4.00;;;;;21.29;52.51;101440.94;5079526;28;48861;-42
2022/10/08 07:02:40;;;;;;;;;4.25;4.25;;;;;21.34;52.48;101440.81;5079656;28;45452;-42
2022/10/08 07:05:06;;;;;;;;;5.25;4.00;;;;;21.38;51.92;101439.84;5080721;28;50770;-41
2022/10/08 07:07:31;;;;;;;;;6.75;4.50;;;;;21.40;52.02;101440.66;5062960;28;45300;-41
2022/10/08 07:09:57;;;;;;;;;5.75;4.00;;;;;21.45;52.37;101447.59;5079565;28;45270;-42
2022/10/08 07:12:22;;;;;;;;;3.00;3.00;;;;;21.49;51.92;101455.50;5060956;28;45577;-41
2022/10/08 07:14:48;;;;;;;;;7.25;5.75;;;;;21.52;52.23;101460.72;5060425;28;45216;-41
2022/10/08 07:17:13;;;;;;;;;2.00;2.00;;;;;21.56;51.80;101462.41;5067134;28;57172;-44
2022/10/08 07:19:38;;;;;;;;;5.25;4.00;;;;;21.58;51.63;101471.22;5065706;28;59317;-42
2022/10/08 07:22:04;;;;;;;;;5.00;4.50;;;;;21.62;52.35;101475.53;5066820;28;54085;-42
2022/10/08 07:24:29;;;;;;;;;6.00;4.00;;;;;21.62;51.89;101472.88;5058499;28;47011;-42
2022/10/08 07:26:54;;;;;;;;;4.00;4.00;;;;;21.65;52.22;101470.16;5059988;28;61267;-44
2022/10/08 07:29:20;;;;;;;;;5.25;4.00;;;;;21.67;52.12;101473.63;5072620;28;50574;-45
2022/10/08 07:31:45;;;;;;;;;5.50;4.25;;;;;21.66;52.41;101482.53;5060438;28;45440;-42
2022/10/08 07:34:11;;;;;;;;;7.75;4.00;;;;;21.62;52.18;101481.69;5060261;28;46224;-41
2022/10/08 07:36:37;;;;;;;;;5.25;5.25;;;;;21.58;52.59;101489.81;5060452;28;45502;-41
2022/10/08 07:39:07;;;;;;;;;3.50;3.50;;;;;21.51;52.79;101488.19;5060246;28;45356;-43
2022/10/08 07:41:32;;;;;;;;;4.75;4.75;;;;;21.47;52.86;101487.41;5060368;28;45224;-43
2022/10/08 07:43:59;;;;;;;;;6.00;4.25;;;;;21.42;52.70;101491.94;5072347;28;46165;-41
2022/10/08 07:46:28;;;;;;;;;4.00;3.50;;;;;21.39;53.05;101498.22;5066894;28;45362;-40
2022/10/08 07:48:56;;;;;;;;;4.25;4.25;;;;;21.38;52.95;101509.75;5066122;28;45242;-41
2022/10/08 07:51:21;;;;;;;;;4.00;3.00;;;;;21.38;53.05;101506.22;5080632;28;45535;-42
2022/10/08 07:53:47;;;;;;;;;6.25;5.25;;;;;21.38;53.33;101501.78;5080274;28;45948;-43
2022/10/08 07:56:14;;;;;;;;;4.75;4.75;;;;;21.37;53.12;101510.66;5080346;28;45302;-42
2022/10/08 07:58:39;;;;;;;;;5.25;3.25;;;;;21.38;53.34;101512.41;5080618;28;45426;-41
2022/10/08 08:01:07;;;;;;;;;6.25;5.00;;;;;21.37;53.22;101523.03;5080338;28;45261;-40
2022/10/08 08:03:32;;;;;;;;;6.00;4.00;;;;;21.36;53.46;101524.81;5079217;28;46356;-40
2022/10/08 08:06:09;;;;;;;;;6.00;6.00;;;;;21.34;53.33;101523.13;5080509;28;45330;-39
2022/10/08 08:08:35;;;;;;;;;4.75;4.75;;;;;21.33;53.38;101522.25;5079202;28;45264;-41
2022/10/08 08:11:01;;;;;;;;;7.25;5.50;;;;;21.31;53.47;101524.06;5069970;28;45275;-41
2022/10/08 08:13:27;;;;;;;;;4.75;4.75;;;;;21.30;53.75;101521.47;5072133;28;45291;-41
2022/10/08 08:16:01;;;;;;;;;7.75;6.50;;;;;21.30;53.74;101532.06;5052103;28;45298;-48
2022/10/08 08:18:30;;;;;;;;;5.00;3.25;;;;;21.30;53.33;101537.38;5062080;27;45321;-42
2022/10/08 08:20:59;;;;;;;;;6.00;5.00;;;;;21.31;53.79;101540.00;5050466;28;45483;-41
2022/10/08 08:23:36;;;;;;;;;4.00;4.00;;;;;21.30;54.02;101540.91;5059677;28;46047;-40
2022/10/08 08:26:02;;;;;;;;;5.00;4.25;;;;;21.33;53.58;101545.28;5059629;28;45387;-47
2022/10/08 08:28:28;;;;;;;;;6.00;5.00;;;;;21.33;53.55;101546.16;5045689;28;45210;-41
2022/10/08 08:30:56;;;;;;;;;9.00;5.25;;;;;21.34;53.66;101547.88;5071663;28;55818;-42
2022/10/08 08:33:22;;;;;;;;;5.50;4.75;;;;;21.37;53.45;101552.25;5049668;28;45954;-41
2022/10/08 08:35:54;;;;;;;;;8.00;6.00;;;;;21.37;53.58;101558.47;5062635;28;45348;-40
2022/10/08 08:38:19;;;;;;;;;5.75;4.50;;;;;21.38;53.39;101554.03;5050314;28;45361;-41
2022/10/08 08:40:45;;;;;;;;;6.25;4.50;;;;;21.39;53.53;101556.63;5061814;28;45325;-41
2022/10/08 08:43:10;;;;;;;;;5.50;5.25;;;;;21.39;53.42;101561.94;5045185;28;48067;-40
2022/10/08 08:45:36;;;;;;;;;7.00;5.25;;;;;21.40;53.56;101563.69;5063135;28;45394;-40
2022/10/08 08:48:21;;;;;;;;;5.00;5.00;;;;;21.40;53.38;101568.13;5061523;28;52882;-40
2022/10/08 08:50:47;;;;;;;;;6.75;4.75;;;;;21.39;53.54;101572.56;5078373;28;45505;-41
2022/10/08 08:53:13;;;;;;;;;6.00;4.00;;;;;21.41;53.12;101575.19;5082387;28;46922;-44
2022/10/08 08:55:42;;;;;;;;;7.25;5.75;;;;;21.42;53.34;101580.47;5064878;28;45431;-40
2022/10/08 08:58:24;;;;;;;;;5.00;4.50;;;;;21.41;53.58;101581.38;5082459;28;45375;-40
2022/10/08 09:00:58;;;;;;;;;5.25;3.00;;;;;21.43;53.47;101576.03;5083176;28;45319;-40
2022/10/08 09:03:27;;;;;;;;;3.50;3.50;;;;;21.42;53.68;101582.25;5083117;28;46795;-40
2022/10/08 09:05:56;;;;;;;;;6.00;4.25;;;;;21.42;53.38;101585.78;5083158;28;45232;-40
2022/10/08 09:08:25;;;;;;;;;7.50;6.00;;;;;21.42;53.64;101588.44;5048486;28;45349;-39
2022/10/08 09:10:55;;;;;;;;;7.00;6.00;;;;;21.42;53.57;101577.81;5068297;28;45392;-40
2022/10/08 09:13:27;;;;;;;;;6.00;3.75;;;;;21.42;53.48;101591.09;5061309;28;45449;-39
2022/10/08 09:15:54;;;;;;;;;5.75;3.50;;;;;21.42;53.66;101593.75;5062572;28;45472;-40
2022/10/08 09:18:19;;;;;;;;;4.75;4.75;;;;;21.45;53.39;101600.75;5058188;28;45412;-40
2022/10/08 09:20:44;;;;;;;;;4.00;3.25;;;;;21.44;53.69;101591.03;5062790;28;45374;-40
2022/10/08 09:23:15;;;;;;;;;8.75;3.75;;;;;21.45;53.09;101598.09;5062473;28;45275;-39
2022/10/08 09:25:41;;;;;;;;;6.00;5.00;;;;;21.43;53.13;101590.16;5062547;28;45327;-40
2022/10/08 09:28:06;;;;;;;;;3.25;3.25;;;;;21.42;53.20;101593.75;5061404;28;45238;-40
2022/10/08 09:30:36;;;;;;;;;4.00;4.00;;;;;21.43;53.35;101600.78;5062751;28;45223;-39
2022/10/08 09:33:15;;;;;;;;;5.25;3.25;;;;;21.43;53.22;101597.25;5057404;28;46970;-39
2022/10/08 09:35:58;;;;;;;;;7.00;5.00;;;;;21.43;53.50;101610.53;5073142;28;45268;-41
2022/10/08 09:38:29;;;;;;;;;5.00;3.00;;;;;21.45;53.43;101606.06;5060779;28;67004;-39
2022/10/08 09:41:01;;;;;;;;;3.00;3.00;;;;;21.43;53.28;101610.53;5075824;28;45390;-39
2022/10/08 09:43:26;;;;;;;;;6.00;4.00;;;;;21.43;53.17;101610.53;5082603;28;45242;-40
2022/10/08 09:45:53;;;;;;;;;6.00;4.00;;;;;21.44;53.40;101617.59;5081050;28;45314;-39
2022/10/08 09:48:26;;;;;;;;;4.00;4.00;;;;;21.43;53.38;101615.84;5072128;28;45620;-39
2022/10/08 09:51:04;;;;;;;;;4.00;4.00;;;;;21.43;53.11;101619.38;5079456;28;45258;-40
2022/10/08 09:53:38;;;;;;;;;6.25;3.25;;;;;21.42;53.38;101625.59;5082285;28;46270;-39
2022/10/08 09:56:04;;;;;;;;;3.50;3.50;;;;;21.43;53.54;101615.84;5082255;28;45345;-39
2022/10/08 09:58:34;;;;;;;;;5.75;4.25;;;;;21.42;53.52;101614.13;5064416;28;45290;-38
2022/10/08 10:01:01;;;;;;;;;8.00;6.00;;;;;21.41;52.91;101610.59;5057293;28;45229;-39
2022/10/08 10:03:26;;;;;;;;;4.50;4.25;;;;;21.42;53.14;101620.28;5060947;28;46165;-38
2022/10/08 10:05:52;;;;;;;;;4.75;2.00;;;;;21.42;53.24;101614.13;5081090;28;45236;-39
2022/10/08 10:08:39;;;;;;;;;10.25;4.00;;;;;21.41;53.22;101615.03;5081274;28;45339;-40
2022/10/08 10:11:05;;;;;;;;;7.00;5.00;;;;;21.41;53.37;101626.53;5072208;27;45611;-40
2022/10/08 10:13:35;;;;;;;;;6.00;4.50;;;;;21.43;53.06;101623.81;5073283;28;64846;-40
2022/10/08 10:16:23;;;;;;;;;4.75;4.00;;;;;21.43;52.93;101621.16;5054075;28;45265;-40
2022/10/08 10:19:10;;;;;;;;;7.25;4.25;;;;;21.44;53.51;101628.22;5064049;28;45414;-39
2022/10/08 10:21:44;;;;;;;;;6.50;4.00;;;;;21.43;53.10;101624.69;5061682;28;45284;-39
2022/10/08 10:24:41;;;;;;;;;6.50;3.50;;;;;21.42;52.95;101625.59;5067764;28;48441;-39
2022/10/08 10:27:15;;;;;;;;;6.75;2.75;;;;;21.41;52.86;101630.97;5060472;28;45367;-39
2022/10/08 10:29:54;;;;;;;;;4.25;4.00;;;;;21.38;52.77;101629.25;5040262;28;45280;-40
2022/10/08 10:32:22;;;;;;;;;6.25;4.50;;;;;21.38;53.05;101621.28;5055687;28;45274;-40
2022/10/08 10:34:54;;;;;;;;;6.75;4.75;;;;;21.39;52.65;101619.50;5062981;28;46543;-40
2022/10/08 10:37:25;;;;;;;;;4.50;4.50;;;;;21.40;52.83;101629.22;5073262;28;45354;-40
2022/10/08 10:40:12;;;;;;;;;5.00;4.25;;;;;21.38;52.79;101629.25;5080568;28;45359;-41
2022/10/08 10:42:59;;;;;;;;;4.50;4.00;;;;;21.37;52.92;101627.50;5061754;28;45523;-42
2022/10/08 10:45:26;;;;;;;;;3.00;3.00;;;;;21.35;52.72;101626.63;5061220;28;46235;-42
2022/10/08 10:47:52;;;;;;;;;5.75;4.25;;;;;21.35;52.74;101634.59;5073424;28;45262;-41
2022/10/08 10:50:53;;;;;;;;;5.00;4.00;;;;;21.34;52.67;101638.19;5072572;28;45368;-40
2022/10/08 10:53:23;;;;;;;;;4.75;3.00;;;;;21.34;52.39;101629.34;5080474;28;45610;-43
2022/10/08 10:56:12;;;;;;;;;5.75;4.50;;;;;21.32;52.42;101640.00;5063445;28;45448;-40
2022/10/08 10:58:56;;;;;;;;;4.00;2.00;;;;;21.32;52.42;101639.13;5079449;28;45260;-41
2022/10/08 11:01:30;;;;;;;;;6.00;5.00;;;;;21.31;52.47;101632.06;5081282;27;45369;-41
2022/10/08 11:04:31;;;;;;;;;5.50;4.00;;;;;21.31;52.40;101637.38;5080000;28;45365;-42
2022/10/08 11:07:34;;;;;;;;;5.50;3.75;;;;;21.30;52.04;101630.31;5079927;28;46215;-42
2022/10/08 11:10:42;;;;;;;;;4.50;4.50;;;;;21.33;52.21;101632.91;5078409;28;45430;-41
2022/10/08 11:13:29;;;;;;;;;8.00;5.50;;;;;21.38;52.27;101633.69;5001053;28;45323;-40
2022/10/08 11:15:55;;;;;;;;;6.50;5.50;;;;;21.40;52.23;101637.19;5055601;28;45431;-40
2022/10/08 11:18:35;;;;;;;;;4.25;3.00;;;;;21.46;51.91;101634.41;5077729;28;46711;-40
2022/10/08 11:21:39;;;;;;;;;5.75;4.00;;;;;21.52;51.63;101634.25;5081107;28;45360;-40
2022/10/08 11:24:23;;;;;;;;;5.50;5.00;;;;;21.58;51.53;101638.56;5079870;28;45304;-40
2022/10/08 11:27:00;;;;;;;;;7.75;5.50;;;;;21.62;51.81;101645.53;5080882;28;45230;-39
2022/10/08 11:29:47;;;;;;;;;7.00;5.50;;;;;21.67;51.83;101633.03;5080867;28;45153;-40
2022/10/08 11:32:14;;;;;;;;;6.75;6.00;;;;;21.70;51.39;101631.19;5079791;28;45235;-40
2022/10/08 11:34:43;;;;;;;;;5.00;5.00;;;;;21.73;51.15;101624.94;5079703;28;45355;-40
2022/10/08 11:37:18;;;;;;;;;3.50;3.50;;;;;21.75;50.97;101631.09;5080745;28;45366;-40